sensor_id;sensor_type;location;lat;lon;timestamp;temperature;humidity
67722;SHT31;58309;45.292;11.820;2023-12-20T00:01:03;-0.45;99.99
67722;SHT31;58309;45.292;11.820;2023-12-20T00:03:29;-0.45;99.99
67722;SHT31;58309;45.292;11.820;2023-12-20T00:05:54;-0.44;99.99
67722;SHT31;58309;45.292;11.820;2023-12-20T00:08:20;-0.39;99.99
67722;SHT31;58309;45.292;11.820;2023-12-20T00:10:45;-0.41;99.99
67722;SHT31;58309;45.292;11.820;2023-12-20T00:13:11;-0.35;99.99
67722;SHT31;58309;45.292;11.820;2023-12-20T00:15:36;-0.37;99.99
67722;SHT31;58309;45.292;11.820;2023-12-20T00:18:02;-0.41;99.99
67722;SHT31;58309;45.292;11.820;2023-12-20T00:20:27;-0.42;99.99
67722;SHT31;58309;45.292;11.820;2023-12-20T00:22:56;-0.38;99.99
67722;SHT31;58309;45.292;11.820;2023-12-20T00:25:25;-0.42;99.99
67722;SHT31;58309;45.292;11.820;2023-12-20T00:27:50;-0.39;99.99
67722;SHT31;58309;45.292;11.820;2023-12-20T00:30:16;-0.38;99.99
67722;SHT31;58309;45.292;11.820;2023-12-20T00:32:41;-0.37;99.99
67722;SHT31;58309;45.292;11.820;2023-12-20T00:35:13;-0.31;99.99
67722;SHT31;58309;45.292;11.820;2023-12-20T00:37:39;-0.07;99.99
67722;SHT31;58309;45.292;11.820;2023-12-20T00:40:04;-0.06;99.99
67722;SHT31;58309;45.292;11.820;2023-12-20T00:42:30;-0.11;99.99
67722;SHT31;58309;45.292;11.820;2023-12-20T00:44:55;-0.20;99.99
67722;SHT31;58309;45.292;11.820;2023-12-20T00:47:20;-0.30;99.99
67722;SHT31;58309;45.292;11.820;2023-12-20T00:49:47;-0.42;99.99
67722;SHT31;58309;45.292;11.820;2023-12-20T00:52:12;-0.48;99.99
67722;SHT31;58309;45.292;11.820;2023-12-20T00:54:37;-0.55;99.99
67722;SHT31;58309;45.292;11.820;2023-12-20T00:57:03;-0.61;99.99
67722;SHT31;58309;45.292;11.820;2023-12-20T00:59:28;-0.68;99.99
67722;SHT31;58309;45.292;11.820;2023-12-20T01:01:53;-0.73;99.99
67722;SHT31;58309;45.292;11.820;2023-12-20T01:04:19;-0.75;99.99
67722;SHT31;58309;45.292;11.820;2023-12-20T01:06:44;-0.82;99.99
67722;SHT31;58309;45.292;11.820;2023-12-20T01:09:09;-0.86;99.99
67722;SHT31;58309;45.292;11.820;2023-12-20T01:11:35;-0.95;99.99
67722;SHT31;58309;45.292;11.820;2023-12-20T01:14:00;-1.01;99.99
67722;SHT31;58309;45.292;11.820;2023-12-20T01:16:25;-1.09;99.99
67722;SHT31;58309;45.292;11.820;2023-12-20T01:18:51;-1.06;99.99
67722;SHT31;58309;45.292;11.820;2023-12-20T01:21:16;-1.07;99.99
67722;SHT31;58309;45.292;11.820;2023-12-20T01:23:41;-1.09;99.99
67722;SHT31;58309;45.292;11.820;2023-12-20T01:26:06;-1.06;99.99
67722;SHT31;58309;45.292;11.820;2023-12-20T01:28:32;-1.06;99.99
67722;SHT31;58309;45.292;11.820;2023-12-20T01:30:57;-1.06;99.99
67722;SHT31;58309;45.292;11.820;2023-12-20T01:33:23;-1.06;99.99
67722;SHT31;58309;45.292;11.820;2023-12-20T01:35:48;-1.07;99.99
67722;SHT31;58309;45.292;11.820;2023-12-20T01:38:13;-1.06;99.99
67722;SHT31;58309;45.292;11.820;2023-12-20T01:40:39;-1.13;99.99
67722;SHT31;58309;45.292;11.820;2023-12-20T01:43:08;-1.04;99.99
67722;SHT31;58309;45.292;11.820;2023-12-20T01:45:39;-0.88;99.99
67722;SHT31;58309;45.292;11.820;2023-12-20T01:48:06;-0.69;99.99
67722;SHT31;58309;45.292;11.820;2023-12-20T01:50:32;-0.70;99.99
67722;SHT31;58309;45.292;11.820;2023-12-20T01:53:00;-0.75;99.99
67722;SHT31;58309;45.292;11.820;2023-12-20T01:55:27;-0.78;99.99
67722;SHT31;58309;45.292;11.820;2023-12-20T01:57:52;-0.88;99.99
67722;SHT31;58309;45.292;11.820;2023-12-20T02:00:18;-0.97;99.99
67722;SHT31;58309;45.292;11.820;2023-12-20T02:02:48;-1.07;99.99
67722;SHT31;58309;45.292;11.820;2023-12-20T02:05:14;-1.13;99.99
67722;SHT31;58309;45.292;11.820;2023-12-20T02:07:41;-1.14;99.99
67722;SHT31;58309;45.292;11.820;2023-12-20T02:10:06;-1.03;99.99
67722;SHT31;58309;45.292;11.820;2023-12-20T02:12:31;-1.03;99.99
67722;SHT31;58309;45.292;11.820;2023-12-20T02:14:57;-1.01;99.99
67722;SHT31;58309;45.292;11.820;2023-12-20T02:17:22;-1.01;99.99
67722;SHT31;58309;45.292;11.820;2023-12-20T02:19:49;-1.10;99.99
67722;SHT31;58309;45.292;11.820;2023-12-20T02:22:14;-1.09;99.99
67722;SHT31;58309;45.292;11.820;2023-12-20T02:24:39;-1.04;99.99
67722;SHT31;58309;45.292;11.820;2023-12-20T02:27:05;-0.75;99.99
67722;SHT31;58309;45.292;11.820;2023-12-20T02:29:31;-0.51;99.99
67722;SHT31;58309;45.292;11.820;2023-12-20T02:31:57;-0.31;99.99
67722;SHT31;58309;45.292;11.820;2023-12-20T02:34:22;-0.34;99.99
67722;SHT31;58309;45.292;11.820;2023-12-20T02:36:48;-0.25;99.99
67722;SHT31;58309;45.292;11.820;2023-12-20T02:39:13;-0.25;99.99
67722;SHT31;58309;45.292;11.820;2023-12-20T02:41:39;-0.34;99.99
67722;SHT31;58309;45.292;11.820;2023-12-20T02:44:04;-0.42;99.99
67722;SHT31;58309;45.292;11.820;2023-12-20T02:46:29;-0.37;99.99
67722;SHT31;58309;45.292;11.820;2023-12-20T02:48:55;-0.39;99.99
67722;SHT31;58309;45.292;11.820;2023-12-20T02:51:20;-0.42;99.99
67722;SHT31;58309;45.292;11.820;2023-12-20T02:53:45;-0.41;99.99
67722;SHT31;58309;45.292;11.820;2023-12-20T02:56:11;-0.44;99.99
67722;SHT31;58309;45.292;11.820;2023-12-20T02:58:36;-0.48;99.99
67722;SHT31;58309;45.292;11.820;2023-12-20T03:01:01;-0.61;99.99
67722;SHT31;58309;45.292;11.820;2023-12-20T03:03:27;-0.66;99.99
67722;SHT31;58309;45.292;11.820;2023-12-20T03:05:52;-0.70;99.99
67722;SHT31;58309;45.292;11.820;2023-12-20T03:08:17;-0.83;99.99
67722;SHT31;58309;45.292;11.820;2023-12-20T03:10:43;-0.86;99.99
67722;SHT31;58309;45.292;11.820;2023-12-20T03:13:09;-0.90;99.99
67722;SHT31;58309;45.292;11.820;2023-12-20T03:15:34;-0.99;99.99
67722;SHT31;58309;45.292;11.820;2023-12-20T03:17:59;-1.06;99.99
67722;SHT31;58309;45.292;11.820;2023-12-20T03:20:25;-1.13;99.99
67722;SHT31;58309;45.292;11.820;2023-12-20T03:22:53;-1.21;99.99
67722;SHT31;58309;45.292;11.820;2023-12-20T03:25:18;-1.19;99.99
67722;SHT31;58309;45.292;11.820;2023-12-20T03:27:44;-1.19;99.99
67722;SHT31;58309;45.292;11.820;2023-12-20T03:30:10;-1.14;99.99
67722;SHT31;58309;45.292;11.820;2023-12-20T03:32:35;-1.04;99.99
67722;SHT31;58309;45.292;11.820;2023-12-20T03:35:01;-1.04;99.99
67722;SHT31;58309;45.292;11.820;2023-12-20T03:37:26;-1.04;99.99
67722;SHT31;58309;45.292;11.820;2023-12-20T03:39:51;-1.00;99.99
67722;SHT31;58309;45.292;11.820;2023-12-20T03:42:17;-1.07;99.99
67722;SHT31;58309;45.292;11.820;2023-12-20T03:44:42;-1.07;99.99
67722;SHT31;58309;45.292;11.820;2023-12-20T03:47:07;-0.99;99.99
67722;SHT31;58309;45.292;11.820;2023-12-20T03:49:33;-0.90;99.99
67722;SHT31;58309;45.292;11.820;2023-12-20T03:51:58;-0.92;99.99
67722;SHT31;58309;45.292;11.820;2023-12-20T03:54:24;-1.00;99.99
67722;SHT31;58309;45.292;11.820;2023-12-20T03:56:49;-1.01;99.99
67722;SHT31;58309;45.292;11.820;2023-12-20T03:59:14;-1.06;99.99
67722;SHT31;58309;45.292;11.820;2023-12-20T04:01:42;-1.11;99.99
67722;SHT31;58309;45.292;11.820;2023-12-20T04:04:08;-1.13;99.99
67722;SHT31;58309;45.292;11.820;2023-12-20T04:06:33;-1.19;99.99
67722;SHT31;58309;45.292;11.820;2023-12-20T04:08:58;-1.23;99.99
67722;SHT31;58309;45.292;11.820;2023-12-20T04:11:24;-1.24;99.99
67722;SHT31;58309;45.292;11.820;2023-12-20T04:13:49;-1.26;99.99
67722;SHT31;58309;45.292;11.820;2023-12-20T04:16:14;-1.24;99.99
67722;SHT31;58309;45.292;11.820;2023-12-20T04:18:40;-1.27;99.99
67722;SHT31;58309;45.292;11.820;2023-12-20T04:21:05;-1.26;99.99
67722;SHT31;58309;45.292;11.820;2023-12-20T04:23:30;-1.23;99.99
67722;SHT31;58309;45.292;11.820;2023-12-20T04:25:55;-1.13;99.99
67722;SHT31;58309;45.292;11.820;2023-12-20T04:28:21;-1.10;99.99
67722;SHT31;58309;45.292;11.820;2023-12-20T04:30:47;-1.03;99.99
67722;SHT31;58309;45.292;11.820;2023-12-20T04:33:12;-1.00;99.99
67722;SHT31;58309;45.292;11.820;2023-12-20T04:35:43;-1.00;99.99
67722;SHT31;58309;45.292;11.820;2023-12-20T04:38:10;-0.95;99.99
67722;SHT31;58309;45.292;11.820;2023-12-20T04:40:36;-0.92;99.99
67722;SHT31;58309;45.292;11.820;2023-12-20T04:43:01;-0.89;99.99
67722;SHT31;58309;45.292;11.820;2023-12-20T04:45:26;-0.88;99.99
67722;SHT31;58309;45.292;11.820;2023-12-20T04:47:52;-0.80;99.99
67722;SHT31;58309;45.292;11.820;2023-12-20T04:50:17;-0.65;99.99
67722;SHT31;58309;45.292;11.820;2023-12-20T04:52:43;-0.59;99.99
67722;SHT31;58309;45.292;11.820;2023-12-20T04:55:08;-0.54;99.99
67722;SHT31;58309;45.292;11.820;2023-12-20T04:57:34;-0.44;99.99
67722;SHT31;58309;45.292;11.820;2023-12-20T04:59:59;-0.34;99.99
67722;SHT31;58309;45.292;11.820;2023-12-20T05:02:25;-0.11;99.99
67722;SHT31;58309;45.292;11.820;2023-12-20T05:04:50;-0.03;99.99
67722;SHT31;58309;45.292;11.820;2023-12-20T05:07:15;0.13;99.99
67722;SHT31;58309;45.292;11.820;2023-12-20T05:09:41;0.17;99.99
67722;SHT31;58309;45.292;11.820;2023-12-20T05:12:06;0.20;99.99
67722;SHT31;58309;45.292;11.820;2023-12-20T05:14:32;0.23;99.99
67722;SHT31;58309;45.292;11.820;2023-12-20T05:16:57;0.31;99.99
67722;SHT31;58309;45.292;11.820;2023-12-20T05:19:23;0.37;99.99
67722;SHT31;58309;45.292;11.820;2023-12-20T05:21:49;0.42;99.99
67722;SHT31;58309;45.292;11.820;2023-12-20T05:24:14;0.52;99.99
67722;SHT31;58309;45.292;11.820;2023-12-20T05:26:39;0.54;99.99
67722;SHT31;58309;45.292;11.820;2023-12-20T05:29:05;0.60;99.99
67722;SHT31;58309;45.292;11.820;2023-12-20T05:31:31;0.68;99.99
67722;SHT31;58309;45.292;11.820;2023-12-20T05:33:56;0.66;99.99
67722;SHT31;58309;45.292;11.820;2023-12-20T05:36:21;0.66;99.99
67722;SHT31;58309;45.292;11.820;2023-12-20T05:38:47;0.68;99.99
67722;SHT31;58309;45.292;11.820;2023-12-20T05:41:12;0.71;99.99
67722;SHT31;58309;45.292;11.820;2023-12-20T05:43:38;0.79;99.99
67722;SHT31;58309;45.292;11.820;2023-12-20T05:46:03;0.85;99.99
67722;SHT31;58309;45.292;11.820;2023-12-20T05:48:29;0.82;99.99
67722;SHT31;58309;45.292;11.820;2023-12-20T05:50:54;0.78;99.99
67722;SHT31;58309;45.292;11.820;2023-12-20T05:53:19;0.73;99.99
67722;SHT31;58309;45.292;11.820;2023-12-20T05:55:45;0.71;99.99
67722;SHT31;58309;45.292;11.820;2023-12-20T05:58:10;0.69;99.99
67722;SHT31;58309;45.292;11.820;2023-12-20T06:00:35;0.76;99.99
67722;SHT31;58309;45.292;11.820;2023-12-20T06:03:01;0.79;99.99
67722;SHT31;58309;45.292;11.820;2023-12-20T06:05:26;0.82;99.99
67722;SHT31;58309;45.292;11.820;2023-12-20T06:07:51;0.82;99.99
67722;SHT31;58309;45.292;11.820;2023-12-20T06:10:17;0.82;99.99
67722;SHT31;58309;45.292;11.820;2023-12-20T06:12:42;0.85;99.99
67722;SHT31;58309;45.292;11.820;2023-12-20T06:15:08;0.89;99.99
67722;SHT31;58309;45.292;11.820;2023-12-20T06:17:33;0.97;99.99
67722;SHT31;58309;45.292;11.820;2023-12-20T06:20:00;1.02;99.99
67722;SHT31;58309;45.292;11.820;2023-12-20T06:22:25;1.02;99.99
67722;SHT31;58309;45.292;11.820;2023-12-20T06:24:50;1.04;99.99
67722;SHT31;58309;45.292;11.820;2023-12-20T06:27:16;1.06;99.99
67722;SHT31;58309;45.292;11.820;2023-12-20T06:29:41;1.13;99.99
67722;SHT31;58309;45.292;11.820;2023-12-20T06:32:07;1.24;99.99
67722;SHT31;58309;45.292;11.820;2023-12-20T06:34:33;1.32;99.99
67722;SHT31;58309;45.292;11.820;2023-12-20T06:36:58;1.36;99.99
67722;SHT31;58309;45.292;11.820;2023-12-20T06:39:23;1.39;99.99
67722;SHT31;58309;45.292;11.820;2023-12-20T06:41:53;1.44;99.99
67722;SHT31;58309;45.292;11.820;2023-12-20T06:44:29;1.48;99.99
67722;SHT31;58309;45.292;11.820;2023-12-20T06:46:54;1.53;99.99
67722;SHT31;58309;45.292;11.820;2023-12-20T06:49:19;1.53;99.99
67722;SHT31;58309;45.292;11.820;2023-12-20T06:51:45;1.61;99.99
67722;SHT31;58309;45.292;11.820;2023-12-20T06:54:10;1.64;99.99
67722;SHT31;58309;45.292;11.820;2023-12-20T06:56:36;1.63;99.99
67722;SHT31;58309;45.292;11.820;2023-12-20T06:59:01;1.68;99.99
67722;SHT31;58309;45.292;11.820;2023-12-20T07:01:26;1.71;99.99
67722;SHT31;58309;45.292;11.820;2023-12-20T07:03:52;1.81;99.99
67722;SHT31;58309;45.292;11.820;2023-12-20T07:06:17;1.88;99.99
67722;SHT31;58309;45.292;11.820;2023-12-20T07:08:42;1.95;99.99
67722;SHT31;58309;45.292;11.820;2023-12-20T07:11:08;1.99;99.99
67722;SHT31;58309;45.292;11.820;2023-12-20T07:13:33;2.11;99.99
67722;SHT31;58309;45.292;11.820;2023-12-20T07:15:58;2.16;99.99
67722;SHT31;58309;45.292;11.820;2023-12-20T07:18:24;2.22;99.99
67722;SHT31;58309;45.292;11.820;2023-12-20T07:20:49;2.26;99.99
67722;SHT31;58309;45.292;11.820;2023-12-20T07:23:15;2.36;99.99
67722;SHT31;58309;45.292;11.820;2023-12-20T07:25:40;2.44;99.99
67722;SHT31;58309;45.292;11.820;2023-12-20T07:28:05;2.52;99.99
67722;SHT31;58309;45.292;11.820;2023-12-20T07:30:31;2.60;99.99
67722;SHT31;58309;45.292;11.820;2023-12-20T07:32:56;2.66;99.99
67722;SHT31;58309;45.292;11.820;2023-12-20T07:35:23;2.68;99.99
67722;SHT31;58309;45.292;11.820;2023-12-20T07:37:48;2.72;99.99
67722;SHT31;58309;45.292;11.820;2023-12-20T07:40:13;2.77;99.99
67722;SHT31;58309;45.292;11.820;2023-12-20T07:42:39;2.87;99.99
67722;SHT31;58309;45.292;11.820;2023-12-20T07:45:04;2.98;99.99
67722;SHT31;58309;45.292;11.820;2023-12-20T07:47:29;3.14;99.99
67722;SHT31;58309;45.292;11.820;2023-12-20T07:49:55;3.25;99.99
67722;SHT31;58309;45.292;11.820;2023-12-20T07:52:20;3.36;99.99
67722;SHT31;58309;45.292;11.820;2023-12-20T07:54:47;3.39;99.99
67722;SHT31;58309;45.292;11.820;2023-12-20T07:57:13;3.38;99.99
67722;SHT31;58309;45.292;11.820;2023-12-20T07:59:38;3.35;99.99
67722;SHT31;58309;45.292;11.820;2023-12-20T08:02:03;3.36;99.99
67722;SHT31;58309;45.292;11.820;2023-12-20T08:04:29;3.34;99.99
67722;SHT31;58309;45.292;11.820;2023-12-20T08:06:54;3.35;99.99
67722;SHT31;58309;45.292;11.820;2023-12-20T08:09:20;3.31;99.99
67722;SHT31;58309;45.292;11.820;2023-12-20T08:11:46;3.34;99.99
67722;SHT31;58309;45.292;11.820;2023-12-20T08:14:11;3.43;99.99
67722;SHT31;58309;45.292;11.820;2023-12-20T08:16:36;3.73;99.99
67722;SHT31;58309;45.292;11.820;2023-12-20T08:19:02;4.10;99.42
67722;SHT31;58309;45.292;11.820;2023-12-20T08:21:27;4.10;98.44
67722;SHT31;58309;45.292;11.820;2023-12-20T08:23:52;4.01;98.67
67722;SHT31;58309;45.292;11.820;2023-12-20T08:26:18;3.91;99.22
67722;SHT31;58309;45.292;11.820;2023-12-20T08:28:45;3.80;99.51
67722;SHT31;58309;45.292;11.820;2023-12-20T08:31:13;3.85;99.99
67722;SHT31;58309;45.292;11.820;2023-12-20T08:33:39;3.77;99.99
67722;SHT31;58309;45.292;11.820;2023-12-20T08:36:04;3.79;99.88
67722;SHT31;58309;45.292;11.820;2023-12-20T08:38:30;3.80;99.87
67722;SHT31;58309;45.292;11.820;2023-12-20T08:40:56;3.87;99.80
67722;SHT31;58309;45.292;11.820;2023-12-20T08:43:21;3.97;99.50
67722;SHT31;58309;45.292;11.820;2023-12-20T08:45:46;4.00;98.79
67722;SHT31;58309;45.292;11.820;2023-12-20T08:48:12;4.13;99.02
67722;SHT31;58309;45.292;11.820;2023-12-20T08:50:37;4.18;98.55
67722;SHT31;58309;45.292;11.820;2023-12-20T08:53:03;4.20;98.62
67722;SHT31;58309;45.292;11.820;2023-12-20T08:55:29;4.27;98.24
67722;SHT31;58309;45.292;11.820;2023-12-20T08:57:56;4.41;98.19
67722;SHT31;58309;45.292;11.820;2023-12-20T09:00:21;4.34;97.44
67722;SHT31;58309;45.292;11.820;2023-12-20T09:02:49;4.25;97.39
67722;SHT31;58309;45.292;11.820;2023-12-20T09:05:14;4.37;97.52
67722;SHT31;58309;45.292;11.820;2023-12-20T09:07:40;4.48;97.14
67722;SHT31;58309;45.292;11.820;2023-12-20T09:10:05;4.58;97.24
67722;SHT31;58309;45.292;11.820;2023-12-20T09:12:31;4.65;96.41
67722;SHT31;58309;45.292;11.820;2023-12-20T09:14:56;4.73;96.25
67722;SHT31;58309;45.292;11.820;2023-12-20T09:17:21;4.78;96.56
67722;SHT31;58309;45.292;11.820;2023-12-20T09:19:48;4.83;96.09
67722;SHT31;58309;45.292;11.820;2023-12-20T09:22:13;4.83;95.95
67722;SHT31;58309;45.292;11.820;2023-12-20T09:24:38;4.86;95.87
67722;SHT31;58309;45.292;11.820;2023-12-20T09:27:05;4.90;96.11
67722;SHT31;58309;45.292;11.820;2023-12-20T09:29:30;4.96;96.31
67722;SHT31;58309;45.292;11.820;2023-12-20T09:31:56;5.13;96.76
67722;SHT31;58309;45.292;11.820;2023-12-20T09:34:22;5.13;96.50
67722;SHT31;58309;45.292;11.820;2023-12-20T09:36:48;5.23;96.35
67722;SHT31;58309;45.292;11.820;2023-12-20T09:39:14;5.43;96.58
67722;SHT31;58309;45.292;11.820;2023-12-20T09:41:43;5.51;95.85
67722;SHT31;58309;45.292;11.820;2023-12-20T09:44:11;5.65;94.95
67722;SHT31;58309;45.292;11.820;2023-12-20T09:46:38;5.75;94.48
67722;SHT31;58309;45.292;11.820;2023-12-20T09:49:04;5.81;94.54
67722;SHT31;58309;45.292;11.820;2023-12-20T09:51:31;6.05;94.22
67722;SHT31;58309;45.292;11.820;2023-12-20T09:53:56;6.05;93.24
67722;SHT31;58309;45.292;11.820;2023-12-20T09:56:23;6.25;92.23
67722;SHT31;58309;45.292;11.820;2023-12-20T09:58:49;6.84;91.94
67722;SHT31;58309;45.292;11.820;2023-12-20T10:01:15;7.29;90.59
67722;SHT31;58309;45.292;11.820;2023-12-20T10:03:41;7.59;88.82
67722;SHT31;58309;45.292;11.820;2023-12-20T10:06:06;7.77;87.44
67722;SHT31;58309;45.292;11.820;2023-12-20T10:08:32;7.19;87.45
67722;SHT31;58309;45.292;11.820;2023-12-20T10:10:57;6.77;88.85
67722;SHT31;58309;45.292;11.820;2023-12-20T10:13:27;6.73;89.98
67722;SHT31;58309;45.292;11.820;2023-12-20T10:15:54;6.66;90.43
67722;SHT31;58309;45.292;11.820;2023-12-20T10:18:20;6.68;91.04
67722;SHT31;58309;45.292;11.820;2023-12-20T10:20:45;6.54;90.20
67722;SHT31;58309;45.292;11.820;2023-12-20T10:23:11;6.58;90.78
67722;SHT31;58309;45.292;11.820;2023-12-20T10:25:37;6.57;91.15
67722;SHT31;58309;45.292;11.820;2023-12-20T10:28:13;6.66;90.78
67722;SHT31;58309;45.292;11.820;2023-12-20T10:30:39;6.76;90.82
67722;SHT31;58309;45.292;11.820;2023-12-20T10:33:05;6.68;90.57
67722;SHT31;58309;45.292;11.820;2023-12-20T10:35:31;6.61;89.91
67722;SHT31;58309;45.292;11.820;2023-12-20T10:37:57;6.67;90.83
67722;SHT31;58309;45.292;11.820;2023-12-20T10:40:23;6.60;91.14
67722;SHT31;58309;45.292;11.820;2023-12-20T10:42:50;6.57;91.25
67722;SHT31;58309;45.292;11.820;2023-12-20T10:45:16;6.51;91.56
67722;SHT31;58309;45.292;11.820;2023-12-20T10:47:43;6.46;91.34
67722;SHT31;58309;45.292;11.820;2023-12-20T10:50:11;6.49;91.20
67722;SHT31;58309;45.292;11.820;2023-12-20T10:52:36;6.54;91.86
67722;SHT31;58309;45.292;11.820;2023-12-20T10:55:03;6.64;91.79
67722;SHT31;58309;45.292;11.820;2023-12-20T10:57:28;6.76;92.67
67722;SHT31;58309;45.292;11.820;2023-12-20T10:59:54;6.84;92.07
67722;SHT31;58309;45.292;11.820;2023-12-20T11:02:21;6.87;92.10
67722;SHT31;58309;45.292;11.820;2023-12-20T11:04:49;6.85;91.42
67722;SHT31;58309;45.292;11.820;2023-12-20T11:07:25;6.68;90.87
67722;SHT31;58309;45.292;11.820;2023-12-20T11:10:05;6.83;91.11
67722;SHT31;58309;45.292;11.820;2023-12-20T11:13:08;6.87;91.07
67722;SHT31;58309;45.292;11.820;2023-12-20T11:15:25;7.08;91.44
67722;SHT31;58309;45.292;11.820;2023-12-20T11:17:55;7.19;91.56
67722;SHT31;58309;45.292;11.820;2023-12-20T11:20:23;7.21;89.91
67722;SHT31;58309;45.292;11.820;2023-12-20T11:22:55;7.43;90.49
67722;SHT31;58309;45.292;11.820;2023-12-20T11:25:21;7.45;89.58
67722;SHT31;58309;45.292;11.820;2023-12-20T11:28:06;7.30;89.49
67722;SHT31;58309;45.292;11.820;2023-12-20T11:30:40;7.42;90.55
67722;SHT31;58309;45.292;11.820;2023-12-20T11:33:06;7.26;89.81
67722;SHT31;58309;45.292;11.820;2023-12-20T11:35:33;7.18;90.62
67722;SHT31;58309;45.292;11.820;2023-12-20T11:37:59;7.21;90.41
67722;SHT31;58309;45.292;11.820;2023-12-20T11:40:25;7.23;90.71
67722;SHT31;58309;45.292;11.820;2023-12-20T11:42:51;7.23;90.34
67722;SHT31;58309;45.292;11.820;2023-12-20T11:45:21;7.21;90.66
67722;SHT31;58309;45.292;11.820;2023-12-20T11:47:49;7.16;91.52
67722;SHT31;58309;45.292;11.820;2023-12-20T11:50:16;7.16;91.34
67722;SHT31;58309;45.292;11.820;2023-12-20T11:52:41;7.15;91.38
67722;SHT31;58309;45.292;11.820;2023-12-20T11:55:07;7.07;92.33
67722;SHT31;58309;45.292;11.820;2023-12-20T11:57:32;7.04;93.19
67722;SHT31;58309;45.292;11.820;2023-12-20T11:59:57;7.12;92.93
67722;SHT31;58309;45.292;11.820;2023-12-20T12:02:23;7.18;93.38
67722;SHT31;58309;45.292;11.820;2023-12-20T12:04:49;7.22;93.60
67722;SHT31;58309;45.292;11.820;2023-12-20T12:07:15;7.22;92.97
67722;SHT31;58309;45.292;11.820;2023-12-20T12:09:41;7.30;93.39
67722;SHT31;58309;45.292;11.820;2023-12-20T12:12:06;7.32;92.85
67722;SHT31;58309;45.292;11.820;2023-12-20T12:14:32;7.33;92.99
67722;SHT31;58309;45.292;11.820;2023-12-20T12:16:57;7.39;92.39
67722;SHT31;58309;45.292;11.820;2023-12-20T12:19:23;7.28;92.61
67722;SHT31;58309;45.292;11.820;2023-12-20T12:22:05;7.16;93.30
67722;SHT31;58309;45.292;11.820;2023-12-20T12:24:34;7.15;93.03
67722;SHT31;58309;45.292;11.820;2023-12-20T12:26:59;7.05;93.16
67722;SHT31;58309;45.292;11.820;2023-12-20T12:29:25;7.05;92.76
67722;SHT31;58309;45.292;11.820;2023-12-20T12:31:52;7.02;92.46
67722;SHT31;58309;45.292;11.820;2023-12-20T12:34:23;7.02;92.17
67722;SHT31;58309;45.292;11.820;2023-12-20T12:36:49;6.97;91.97
67722;SHT31;58309;45.292;11.820;2023-12-20T12:39:14;6.98;91.66
67722;SHT31;58309;45.292;11.820;2023-12-20T12:41:40;6.99;92.18
67722;SHT31;58309;45.292;11.820;2023-12-20T12:44:06;7.04;91.70
67722;SHT31;58309;45.292;11.820;2023-12-20T12:46:31;6.94;91.20
67722;SHT31;58309;45.292;11.820;2023-12-20T12:48:57;6.88;90.83
67722;SHT31;58309;45.292;11.820;2023-12-20T12:51:23;6.92;91.09
67722;SHT31;58309;45.292;11.820;2023-12-20T12:53:48;6.94;91.34
67722;SHT31;58309;45.292;11.820;2023-12-20T12:56:15;6.95;91.44
67722;SHT31;58309;45.292;11.820;2023-12-20T12:58:41;6.90;91.06
67722;SHT31;58309;45.292;11.820;2023-12-20T13:01:06;6.81;91.16
67722;SHT31;58309;45.292;11.820;2023-12-20T13:03:31;6.81;90.60
67722;SHT31;58309;45.292;11.820;2023-12-20T13:05:57;6.76;90.44
67722;SHT31;58309;45.292;11.820;2023-12-20T13:08:22;6.73;91.09
67722;SHT31;58309;45.292;11.820;2023-12-20T13:10:47;6.70;91.36
67722;SHT31;58309;45.292;11.820;2023-12-20T13:13:13;6.71;90.89
67722;SHT31;58309;45.292;11.820;2023-12-20T13:15:38;6.66;91.05
67722;SHT31;58309;45.292;11.820;2023-12-20T13:18:04;6.68;90.84
67722;SHT31;58309;45.292;11.820;2023-12-20T13:20:31;6.70;91.30
67722;SHT31;58309;45.292;11.820;2023-12-20T13:22:56;6.68;91.46
67722;SHT31;58309;45.292;11.820;2023-12-20T13:25:21;6.74;91.16
67722;SHT31;58309;45.292;11.820;2023-12-20T13:27:47;6.83;90.59
67722;SHT31;58309;45.292;11.820;2023-12-20T13:30:12;6.85;90.66
67722;SHT31;58309;45.292;11.820;2023-12-20T13:32:38;6.87;90.27
67722;SHT31;58309;45.292;11.820;2023-12-20T13:35:04;6.91;89.90
67722;SHT31;58309;45.292;11.820;2023-12-20T13:37:29;6.98;89.73
67722;SHT31;58309;45.292;11.820;2023-12-20T13:39:54;6.97;89.48
67722;SHT31;58309;45.292;11.820;2023-12-20T13:42:20;6.99;89.13
67722;SHT31;58309;45.292;11.820;2023-12-20T13:44:45;7.02;88.74
67722;SHT31;58309;45.292;11.820;2023-12-20T13:47:12;7.09;89.08
67722;SHT31;58309;45.292;11.820;2023-12-20T13:49:37;7.16;89.00
67722;SHT31;58309;45.292;11.820;2023-12-20T13:52:02;7.14;89.06
67722;SHT31;58309;45.292;11.820;2023-12-20T13:54:29;7.09;89.09
67722;SHT31;58309;45.292;11.820;2023-12-20T13:56:54;7.05;89.28
67722;SHT31;58309;45.292;11.820;2023-12-20T13:59:19;7.09;88.74
67722;SHT31;58309;45.292;11.820;2023-12-20T14:01:45;7.12;89.52
67722;SHT31;58309;45.292;11.820;2023-12-20T14:04:10;7.18;90.00
67722;SHT31;58309;45.292;11.820;2023-12-20T14:06:36;7.19;89.63
67722;SHT31;58309;45.292;11.820;2023-12-20T14:09:02;7.18;89.59
67722;SHT31;58309;45.292;11.820;2023-12-20T14:11:28;7.21;89.45
67722;SHT31;58309;45.292;11.820;2023-12-20T14:13:53;7.19;89.20
67722;SHT31;58309;45.292;11.820;2023-12-20T14:16:23;7.11;88.80
67722;SHT31;58309;45.292;11.820;2023-12-20T14:18:49;7.08;89.06
67722;SHT31;58309;45.292;11.820;2023-12-20T14:21:14;7.08;89.33
67722;SHT31;58309;45.292;11.820;2023-12-20T14:23:39;6.98;88.72
67722;SHT31;58309;45.292;11.820;2023-12-20T14:26:05;6.92;89.08
67722;SHT31;58309;45.292;11.820;2023-12-20T14:28:30;6.90;89.27
67722;SHT31;58309;45.292;11.820;2023-12-20T14:30:55;6.91;89.37
67722;SHT31;58309;45.292;11.820;2023-12-20T14:33:21;6.94;89.34
67722;SHT31;58309;45.292;11.820;2023-12-20T14:35:46;6.94;89.45
67722;SHT31;58309;45.292;11.820;2023-12-20T14:38:12;6.98;89.49
67722;SHT31;58309;45.292;11.820;2023-12-20T14:40:40;7.02;89.08
67722;SHT31;58309;45.292;11.820;2023-12-20T14:43:06;7.08;89.05
67722;SHT31;58309;45.292;11.820;2023-12-20T14:45:31;7.14;88.52
67722;SHT31;58309;45.292;11.820;2023-12-20T14:47:57;7.12;89.03
67722;SHT31;58309;45.292;11.820;2023-12-20T14:50:23;7.12;88.59
67722;SHT31;58309;45.292;11.820;2023-12-20T14:52:49;7.12;88.38
67722;SHT31;58309;45.292;11.820;2023-12-20T14:55:14;7.07;88.59
67722;SHT31;58309;45.292;11.820;2023-12-20T14:57:40;7.01;89.19
67722;SHT31;58309;45.292;11.820;2023-12-20T15:00:06;6.98;89.20
67722;SHT31;58309;45.292;11.820;2023-12-20T15:02:31;6.92;89.08
67722;SHT31;58309;45.292;11.820;2023-12-20T15:04:57;6.88;89.44
67722;SHT31;58309;45.292;11.820;2023-12-20T15:07:22;6.84;89.50
67722;SHT31;58309;45.292;11.820;2023-12-20T15:09:47;6.83;89.39
67722;SHT31;58309;45.292;11.820;2023-12-20T15:12:14;6.84;89.40
67722;SHT31;58309;45.292;11.820;2023-12-20T15:14:39;6.81;89.52
67722;SHT31;58309;45.292;11.820;2023-12-20T15:17:05;6.78;89.82